sensor_id;sensor_type;location;lat;lon;timestamp;temperature;humidity
10905;DHT22;5505;51.450;9.254;2023-05-21T00:00:25;11.10;99.90
10905;DHT22;5505;51.450;9.254;2023-05-21T00:03:12;10.70;99.90
10905;DHT22;5505;51.450;9.254;2023-05-21T00:06:00;11.50;99.90
10905;DHT22;5505;51.450;9.254;2023-05-21T00:08:47;10.70;99.90
10905;DHT22;5505;51.450;9.254;2023-05-21T00:11:34;10.60;99.90
10905;DHT22;5505;51.450;9.254;2023-05-21T00:14:21;11.80;99.90
10905;DHT22;5505;51.450;9.254;2023-05-21T00:17:09;10.50;99.90
10905;DHT22;5505;51.450;9.254;2023-05-21T00:19:56;10.60;99.90
10905;DHT22;5505;51.450;9.254;2023-05-21T00:22:44;10.50;99.90
10905;DHT22;5505;51.450;9.254;2023-05-21T00:25:32;10.50;99.90
10905;DHT22;5505;51.450;9.254;2023-05-21T00:28:19;10.60;99.90
10905;DHT22;5505;51.450;9.254;2023-05-21T00:31:06;10.50;99.90
10905;DHT22;5505;51.450;9.254;2023-05-21T00:33:54;10.50;99.90
10905;DHT22;5505;51.450;9.254;2023-05-21T00:36:40;10.40;99.90
10905;DHT22;5505;51.450;9.254;2023-05-21T00:39:29;10.30;99.90
10905;DHT22;5505;51.450;9.254;2023-05-21T00:42:16;10.20;99.90
10905;DHT22;5505;51.450;9.254;2023-05-21T00:45:04;10.20;99.90
10905;DHT22;5505;51.450;9.254;2023-05-21T00:47:51;10.20;99.90
10905;DHT22;5505;51.450;9.254;2023-05-21T00:50:41;10.10;99.90
10905;DHT22;5505;51.450;9.254;2023-05-21T00:53:29;10.10;99.90
10905;DHT22;5505;51.450;9.254;2023-05-21T00:56:19;10.10;99.90
10905;DHT22;5505;51.450;9.254;2023-05-21T00:59:07;10.10;99.90
10905;DHT22;5505;51.450;9.254;2023-05-21T01:01:54;11.70;99.90
10905;DHT22;5505;51.450;9.254;2023-05-21T01:04:42;9.90;99.90
10905;DHT22;5505;51.450;9.254;2023-05-21T01:07:30;9.90;99.90
10905;DHT22;5505;51.450;9.254;2023-05-21T01:10:19;9.90;99.90
10905;DHT22;5505;51.450;9.254;2023-05-21T01:13:06;10.90;99.90
10905;DHT22;5505;51.450;9.254;2023-05-21T01:15:53;10.70;99.90
10905;DHT22;5505;51.450;9.254;2023-05-21T01:18:42;9.80;99.90
10905;DHT22;5505;51.450;9.254;2023-05-21T01:21:29;9.80;99.90
10905;DHT22;5505;51.450;9.254;2023-05-21T01:24:18;9.90;99.90
10905;DHT22;5505;51.450;9.254;2023-05-21T01:27:05;9.80;99.90
10905;DHT22;5505;51.450;9.254;2023-05-21T01:29:52;9.70;99.90
10905;DHT22;5505;51.450;9.254;2023-05-21T01:32:43;9.70;99.90
10905;DHT22;5505;51.450;9.254;2023-05-21T01:35:37;9.70;99.90
10905;DHT22;5505;51.450;9.254;2023-05-21T01:38:28;9.70;99.90
10905;DHT22;5505;51.450;9.254;2023-05-21T01:41:18;9.70;99.90
10905;DHT22;5505;51.450;9.254;2023-05-21T01:44:06;9.60;99.90
10905;DHT22;5505;51.450;9.254;2023-05-21T01:46:55;9.70;99.90
10905;DHT22;5505;51.450;9.254;2023-05-21T01:49:42;10.80;99.90
10905;DHT22;5505;51.450;9.254;2023-05-21T01:52:29;9.60;99.90
10905;DHT22;5505;51.450;9.254;2023-05-21T01:55:16;9.60;99.90
10905;DHT22;5505;51.450;9.254;2023-05-21T01:58:05;9.50;99.90
10905;DHT22;5505;51.450;9.254;2023-05-21T02:00:51;9.50;99.90
10905;DHT22;5505;51.450;9.254;2023-05-21T02:03:39;9.50;99.90
10905;DHT22;5505;51.450;9.254;2023-05-21T02:06:26;9.50;99.90
10905;DHT22;5505;51.450;9.254;2023-05-21T02:09:13;9.40;99.90
10905;DHT22;5505;51.450;9.254;2023-05-21T02:12:01;9.40;99.90
10905;DHT22;5505;51.450;9.254;2023-05-21T02:14:49;9.40;99.90
10905;DHT22;5505;51.450;9.254;2023-05-21T02:17:36;9.40;99.90
10905;DHT22;5505;51.450;9.254;2023-05-21T02:20:23;9.40;99.90
10905;DHT22;5505;51.450;9.254;2023-05-21T02:23:09;9.40;99.90
10905;DHT22;5505;51.450;9.254;2023-05-21T02:25:56;9.40;99.90
10905;DHT22;5505;51.450;9.254;2023-05-21T02:28:43;9.40;99.90
10905;DHT22;5505;51.450;9.254;2023-05-21T02:31:31;9.40;99.90
10905;DHT22;5505;51.450;9.254;2023-05-21T02:34:18;9.40;99.90
10905;DHT22;5505;51.450;9.254;2023-05-21T02:37:05;9.40;99.90
10905;DHT22;5505;51.450;9.254;2023-05-21T02:39:51;9.40;99.90
10905;DHT22;5505;51.450;9.254;2023-05-21T02:42:39;9.40;99.90
10905;DHT22;5505;51.450;9.254;2023-05-21T02:45:27;10.60;99.90
10905;DHT22;5505;51.450;9.254;2023-05-21T02:48:15;10.20;99.90
10905;DHT22;5505;51.450;9.254;2023-05-21T02:51:02;9.40;99.90
10905;DHT22;5505;51.450;9.254;2023-05-21T02:53:49;9.40;99.90
10905;DHT22;5505;51.450;9.254;2023-05-21T02:56:35;9.40;99.90
10905;DHT22;5505;51.450;9.254;2023-05-21T02:59:22;9.30;99.90
10905;DHT22;5505;51.450;9.254;2023-05-21T03:02:09;9.30;99.90
10905;DHT22;5505;51.450;9.254;2023-05-21T03:04:57;9.30;99.90
10905;DHT22;5505;51.450;9.254;2023-05-21T03:07:43;10.10;99.90
10905;DHT22;5505;51.450;9.254;2023-05-21T03:10:30;9.30;99.90
10905;DHT22;5505;51.450;9.254;2023-05-21T03:13:17;9.20;99.90
10905;DHT22;5505;51.450;9.254;2023-05-21T03:16:04;9.20;99.90
10905;DHT22;5505;51.450;9.254;2023-05-21T03:18:51;9.20;99.90
10905;DHT22;5505;51.450;9.254;2023-05-21T03:21:39;9.20;99.90
10905;DHT22;5505;51.450;9.254;2023-05-21T03:24:27;9.20;99.90
10905;DHT22;5505;51.450;9.254;2023-05-21T03:27:14;9.10;99.90
10905;DHT22;5505;51.450;9.254;2023-05-21T03:30:01;9.10;99.90
10905;DHT22;5505;51.450;9.254;2023-05-21T03:32:48;9.20;99.90
10905;DHT22;5505;51.450;9.254;2023-05-21T03:35:35;9.20;99.90
10905;DHT22;5505;51.450;9.254;2023-05-21T03:38:23;9.20;99.90
10905;DHT22;5505;51.450;9.254;2023-05-21T03:41:11;9.20;99.90
10905;DHT22;5505;51.450;9.254;2023-05-21T03:43:57;9.20;99.90
10905;DHT22;5505;51.450;9.254;2023-05-21T03:46:44;9.10;99.90
10905;DHT22;5505;51.450;9.254;2023-05-21T03:49:31;9.80;99.90
10905;DHT22;5505;51.450;9.254;2023-05-21T03:52:17;9.20;99.90
10905;DHT22;5505;51.450;9.254;2023-05-21T03:55:06;10.10;99.90
10905;DHT22;5505;51.450;9.254;2023-05-21T03:57:53;9.20;99.90
10905;DHT22;5505;51.450;9.254;2023-05-21T04:00:40;9.20;99.90
10905;DHT22;5505;51.450;9.254;2023-05-21T04:03:27;9.30;99.90
10905;DHT22;5505;51.450;9.254;2023-05-21T04:06:14;9.20;99.90
10905;DHT22;5505;51.450;9.254;2023-05-21T04:09:01;9.30;99.90
10905;DHT22;5505;51.450;9.254;2023-05-21T04:11:50;9.30;99.90
10905;DHT22;5505;51.450;9.254;2023-05-21T04:14:37;9.50;99.90
10905;DHT22;5505;51.450;9.254;2023-05-21T04:17:23;9.40;99.90
10905;DHT22;5505;51.450;9.254;2023-05-21T04:20:12;9.50;99.90
10905;DHT22;5505;51.450;9.254;2023-05-21T04:23:01;9.60;99.90
10905;DHT22;5505;51.450;9.254;2023-05-21T04:25:48;9.60;99.90
10905;DHT22;5505;51.450;9.254;2023-05-21T04:28:36;9.70;99.90
10905;DHT22;5505;51.450;9.254;2023-05-21T04:31:26;9.70;99.90
10905;DHT22;5505;51.450;9.254;2023-05-21T04:34:13;9.80;99.90
10905;DHT22;5505;51.450;9.254;2023-05-21T04:37:02;9.80;99.90
10905;DHT22;5505;51.450;9.254;2023-05-21T04:39:49;9.80;99.90
10905;DHT22;5505;51.450;9.254;2023-05-21T04:42:35;9.90;99.90
10905;DHT22;5505;51.450;9.254;2023-05-21T04:45:24;9.90;99.90
10905;DHT22;5505;51.450;9.254;2023-05-21T04:48:11;10.00;99.90
10905;DHT22;5505;51.450;9.254;2023-05-21T04:51:00;10.00;99.90
10905;DHT22;5505;51.450;9.254;2023-05-21T04:53:50;10.10;99.90
10905;DHT22;5505;51.450;9.254;2023-05-21T04:56:38;11.80;99.90
10905;DHT22;5505;51.450;9.254;2023-05-21T04:59:25;10.20;99.90
10905;DHT22;5505;51.450;9.254;2023-05-21T05:02:13;10.30;99.90
10905;DHT22;5505;51.450;9.254;2023-05-21T05:05:00;10.30;99.90
10905;DHT22;5505;51.450;9.254;2023-05-21T05:07:46;10.30;99.90
10905;DHT22;5505;51.450;9.254;2023-05-21T05:10:34;10.50;99.90
10905;DHT22;5505;51.450;9.254;2023-05-21T05:13:21;11.10;99.90
10905;DHT22;5505;51.450;9.254;2023-05-21T05:16:07;10.50;99.90
10905;DHT22;5505;51.450;9.254;2023-05-21T05:18:56;10.70;99.90
10905;DHT22;5505;51.450;9.254;2023-05-21T05:21:43;10.70;99.90
10905;DHT22;5505;51.450;9.254;2023-05-21T05:24:29;10.80;99.90
10905;DHT22;5505;51.450;9.254;2023-05-21T05:27:16;10.90;99.90
10905;DHT22;5505;51.450;9.254;2023-05-21T05:30:04;10.90;99.90
10905;DHT22;5505;51.450;9.254;2023-05-21T05:32:51;11.00;99.90
10905;DHT22;5505;51.450;9.254;2023-05-21T05:35:39;11.10;99.90
10905;DHT22;5505;51.450;9.254;2023-05-21T05:38:25;11.20;99.90
10905;DHT22;5505;51.450;9.254;2023-05-21T05:41:12;11.20;99.90
10905;DHT22;5505;51.450;9.254;2023-05-21T05:43:59;11.30;99.90
10905;DHT22;5505;51.450;9.254;2023-05-21T05:46:46;11.40;99.90
10905;DHT22;5505;51.450;9.254;2023-05-21T05:49:32;11.50;99.90
10905;DHT22;5505;51.450;9.254;2023-05-21T05:52:20;11.50;99.90
10905;DHT22;5505;51.450;9.254;2023-05-21T05:55:08;11.60;99.90
10905;DHT22;5505;51.450;9.254;2023-05-21T05:57:56;11.70;99.90
10905;DHT22;5505;51.450;9.254;2023-05-21T06:00:43;11.80;99.90
10905;DHT22;5505;51.450;9.254;2023-05-21T06:03:30;11.90;99.90
10905;DHT22;5505;51.450;9.254;2023-05-21T06:06:17;11.90;99.90
10905;DHT22;5505;51.450;9.254;2023-05-21T06:09:05;12.00;99.90
10905;DHT22;5505;51.450;9.254;2023-05-21T06:11:52;12.90;99.90
10905;DHT22;5505;51.450;9.254;2023-05-21T06:14:38;12.10;99.90
10905;DHT22;5505;51.450;9.254;2023-05-21T06:17:25;12.30;99.90
10905;DHT22;5505;51.450;9.254;2023-05-21T06:20:12;12.30;99.90
10905;DHT22;5505;51.450;9.254;2023-05-21T06:22:58;12.40;99.90
10905;DHT22;5505;51.450;9.254;2023-05-21T06:25:47;12.50;99.90
10905;DHT22;5505;51.450;9.254;2023-05-21T06:28:33;12.60;99.90
10905;DHT22;5505;51.450;9.254;2023-05-21T06:31:20;12.70;99.90
10905;DHT22;5505;51.450;9.254;2023-05-21T06:34:07;12.80;99.90
10905;DHT22;5505;51.450;9.254;2023-05-21T06:36:55;12.80;99.90
10905;DHT22;5505;51.450;9.254;2023-05-21T06:39:41;12.90;99.90
10905;DHT22;5505;51.450;9.254;2023-05-21T06:42:29;13.00;99.90
10905;DHT22;5505;51.450;9.254;2023-05-21T06:45:16;13.00;99.90
10905;DHT22;5505;51.450;9.254;2023-05-21T06:48:03;13.20;99.90
10905;DHT22;5505;51.450;9.254;2023-05-21T06:50:50;13.30;99.90
10905;DHT22;5505;51.450;9.254;2023-05-21T06:53:37;13.50;99.90
10905;DHT22;5505;51.450;9.254;2023-05-21T06:56:24;13.60;99.90
10905;DHT22;5505;51.450;9.254;2023-05-21T06:59:12;13.70;99.90
10905;DHT22;5505;51.450;9.254;2023-05-21T07:01:59;13.80;99.90
10905;DHT22;5505;51.450;9.254;2023-05-21T07:04:46;15.90;99.90
10905;DHT22;5505;51.450;9.254;2023-05-21T07:07:33;14.00;99.90
10905;DHT22;5505;51.450;9.254;2023-05-21T07:10:20;14.10;99.90
10905;DHT22;5505;51.450;9.254;2023-05-21T07:13:07;14.20;99.90
10905;DHT22;5505;51.450;9.254;2023-05-21T07:15:55;14.30;99.90
10905;DHT22;5505;51.450;9.254;2023-05-21T07:18:42;14.40;99.90
10905;DHT22;5505;51.450;9.254;2023-05-21T07:21:28;14.40;99.90
10905;DHT22;5505;51.450;9.254;2023-05-21T07:24:15;14.50;99.90
10905;DHT22;5505;51.450;9.254;2023-05-21T07:27:02;14.70;99.90
10905;DHT22;5505;51.450;9.254;2023-05-21T07:29:50;14.90;99.90
10905;DHT22;5505;51.450;9.254;2023-05-21T07:32:39;15.20;99.90
10905;DHT22;5505;51.450;9.254;2023-05-21T07:35:25;15.40;99.90
10905;DHT22;5505;51.450;9.254;2023-05-21T07:38:12;15.60;99.90
10905;DHT22;5505;51.450;9.254;2023-05-21T07:40:59;15.70;99.90
10905;DHT22;5505;51.450;9.254;2023-05-21T07:43:45;15.80;99.90
10905;DHT22;5505;51.450;9.254;2023-05-21T07:46:32;16.00;99.90
10905;DHT22;5505;51.450;9.254;2023-05-21T07:49:20;16.20;99.90
10905;DHT22;5505;51.450;9.254;2023-05-21T07:52:07;16.30;99.90
10905;DHT22;5505;51.450;9.254;2023-05-21T07:54:54;16.40;99.90
10905;DHT22;5505;51.450;9.254;2023-05-21T07:57:40;16.60;99.90
10905;DHT22;5505;51.450;9.254;2023-05-21T08:00:27;16.70;99.90
10905;DHT22;5505;51.450;9.254;2023-05-21T08:03:14;16.60;99.90
10905;DHT22;5505;51.450;9.254;2023-05-21T08:06:03;16.70;99.90
10905;DHT22;5505;51.450;9.254;2023-05-21T08:08:49;16.70;99.90
10905;DHT22;5505;51.450;9.254;2023-05-21T08:11:36;16.80;99.90
10905;DHT22;5505;51.450;9.254;2023-05-21T08:14:23;16.90;99.90
10905;DHT22;5505;51.450;9.254;2023-05-21T08:17:10;16.90;99.90
10905;DHT22;5505;51.450;9.254;2023-05-21T08:19:57;17.10;99.90
10905;DHT22;5505;51.450;9.254;2023-05-21T08:22:45;17.30;99.90
10905;DHT22;5505;51.450;9.254;2023-05-21T08:25:32;17.40;99.90
10905;DHT22;5505;51.450;9.254;2023-05-21T08:28:20;17.50;99.90
10905;DHT22;5505;51.450;9.254;2023-05-21T08:31:07;17.60;99.90
10905;DHT22;5505;51.450;9.254;2023-05-21T08:33:54;17.60;99.90
10905;DHT22;5505;51.450;9.254;2023-05-21T08:36:41;17.90;99.90
10905;DHT22;5505;51.450;9.254;2023-05-21T08:39:31;18.00;99.90
10905;DHT22;5505;51.450;9.254;2023-05-21T08:42:23;17.90;99.90
10905;DHT22;5505;51.450;9.254;2023-05-21T08:45:13;18.10;99.90
10905;DHT22;5505;51.450;9.254;2023-05-21T08:48:01;18.10;99.90
10905;DHT22;5505;51.450;9.254;2023-05-21T08:50:48;18.20;99.90
10905;DHT22;5505;51.450;9.254;2023-05-21T08:53:35;18.20;99.90
10905;DHT22;5505;51.450;9.254;2023-05-21T08:56:23;18.40;99.90
10905;DHT22;5505;51.450;9.254;2023-05-21T08:59:11;18.40;99.90
10905;DHT22;5505;51.450;9.254;2023-05-21T09:01:59;18.60;99.90
10905;DHT22;5505;51.450;9.254;2023-05-21T09:04:47;18.60;99.90
10905;DHT22;5505;51.450;9.254;2023-05-21T09:07:38;18.70;99.90
10905;DHT22;5505;51.450;9.254;2023-05-21T09:10:31;18.70;99.90
10905;DHT22;5505;51.450;9.254;2023-05-21T09:13:20;18.40;99.90
10905;DHT22;5505;51.450;9.254;2023-05-21T09:16:09;18.50;99.90
10905;DHT22;5505;51.450;9.254;2023-05-21T09:18:56;18.60;99.90
10905;DHT22;5505;51.450;9.254;2023-05-21T09:21:43;18.70;99.90
10905;DHT22;5505;51.450;9.254;2023-05-21T09:24:30;18.80;99.90
10905;DHT22;5505;51.450;9.254;2023-05-21T09:27:17;18.80;99.90
10905;DHT22;5505;51.450;9.254;2023-05-21T09:30:09;19.00;99.90
10905;DHT22;5505;51.450;9.254;2023-05-21T09:32:57;19.20;99.90
10905;DHT22;5505;51.450;9.254;2023-05-21T09:35:44;19.40;99.90
10905;DHT22;5505;51.450;9.254;2023-05-21T09:38:33;19.60;99.90
10905;DHT22;5505;51.450;9.254;2023-05-21T09:41:30;19.80;99.90
10905;DHT22;5505;51.450;9.254;2023-05-21T09:44:17;20.00;99.90
10905;DHT22;5505;51.450;9.254;2023-05-21T09:47:07;20.30;99.90
10905;DHT22;5505;51.450;9.254;2023-05-21T09:49:57;20.40;99.90
10905;DHT22;5505;51.450;9.254;2023-05-21T09:52:44;20.60;99.90
10905;DHT22;5505;51.450;9.254;2023-05-21T09:55:30;21.10;99.90
10905;DHT22;5505;51.450;9.254;2023-05-21T09:58:21;20.80;99.90
10905;DHT22;5505;51.450;9.254;2023-05-21T10:01:09;20.90;99.90
10905;DHT22;5505;51.450;9.254;2023-05-21T10:03:59;21.00;99.90
10905;DHT22;5505;51.450;9.254;2023-05-21T10:06:46;21.20;99.90
10905;DHT22;5505;51.450;9.254;2023-05-21T10:09:35;21.40;99.90
10905;DHT22;5505;51.450;9.254;2023-05-21T10:12:23;21.50;99.90
10905;DHT22;5505;51.450;9.254;2023-05-21T10:15:13;21.60;99.90
10905;DHT22;5505;51.450;9.254;2023-05-21T10:18:00;21.30;99.90
10905;DHT22;5505;51.450;9.254;2023-05-21T10:20:51;21.10;99.90
10905;DHT22;5505;51.450;9.254;2023-05-21T10:23:39;21.10;99.90
10905;DHT22;5505;51.450;9.254;2023-05-21T10:26:27;21.10;99.90
10905;DHT22;5505;51.450;9.254;2023-05-21T10:29:14;21.20;99.90
10905;DHT22;5505;51.450;9.254;2023-05-21T10:32:03;21.30;99.90
10905;DHT22;5505;51.450;9.254;2023-05-21T10:34:52;21.30;99.90
10905;DHT22;5505;51.450;9.254;2023-05-21T10:37:40;21.50;99.90
10905;DHT22;5505;51.450;9.254;2023-05-21T10:40:28;21.30;99.90
10905;DHT22;5505;51.450;9.254;2023-05-21T10:47:00;21.30;99.90
10905;DHT22;5505;51.450;9.254;2023-05-21T10:49:59;21.20;99.90
10905;DHT22;5505;51.450;9.254;2023-05-21T10:52:59;21.10;99.90
10905;DHT22;5505;51.450;9.254;2023-05-21T10:55:57;21.10;99.90
10905;DHT22;5505;51.450;9.254;2023-05-21T10:58:59;21.10;99.90
10905;DHT22;5505;51.450;9.254;2023-05-21T11:01:51;21.20;99.90
10905;DHT22;5505;51.450;9.254;2023-05-21T11:04:39;21.30;99.90
10905;DHT22;5505;51.450;9.254;2023-05-21T11:07:55;21.30;99.90
10905;DHT22;5505;51.450;9.254;2023-05-21T11:10:42;21.50;99.90
10905;DHT22;5505;51.450;9.254;2023-05-21T11:13:44;21.70;99.90
10905;DHT22;5505;51.450;9.254;2023-05-21T11:16:35;22.10;99.90
10905;DHT22;5505;51.450;9.254;2023-05-21T11:19:33;22.40;99.90
10905;DHT22;5505;51.450;9.254;2023-05-21T11:22:21;22.40;99.90
10905;DHT22;5505;51.450;9.254;2023-05-21T11:25:10;22.30;99.90
10905;DHT22;5505;51.450;9.254;2023-05-21T11:28:04;22.30;99.90
10905;DHT22;5505;51.450;9.254;2023-05-21T11:34:19;22.20;99.90
10905;DHT22;5505;51.450;9.254;2023-05-21T11:37:37;23.00;99.90
10905;DHT22;5505;51.450;9.254;2023-05-21T11:40:27;22.20;99.90
10905;DHT22;5505;51.450;9.254;2023-05-21T11:43:15;22.30;99.90
10905;DHT22;5505;51.450;9.254;2023-05-21T11:46:04;22.30;99.90
10905;DHT22;5505;51.450;9.254;2023-05-21T11:48:51;22.40;99.90
10905;DHT22;5505;51.450;9.254;2023-05-21T11:51:39;22.40;99.90
10905;DHT22;5505;51.450;9.254;2023-05-21T11:54:26;22.50;99.90
10905;DHT22;5505;51.450;9.254;2023-05-21T11:57:15;22.70;99.90
10905;DHT22;5505;51.450;9.254;2023-05-21T12:00:04;22.80;99.90
10905;DHT22;5505;51.450;9.254;2023-05-21T12:02:58;22.70;99.90
10905;DHT22;5505;51.450;9.254;2023-05-21T12:05:45;22.80;99.90
10905;DHT22;5505;51.450;9.254;2023-05-21T12:08:32;22.70;99.90
10905;DHT22;5505;51.450;9.254;2023-05-21T12:11:19;23.20;99.90
10905;DHT22;5505;51.450;9.254;2023-05-21T12:14:08;22.70;99.90
10905;DHT22;5505;51.450;9.254;2023-05-21T12:16:55;22.90;99.90
10905;DHT22;5505;51.450;9.254;2023-05-21T12:19:43;23.00;99.90
10905;DHT22;5505;51.450;9.254;2023-05-21T12:22:30;23.10;99.90
10905;DHT22;5505;51.450;9.254;2023-05-21T12:25:18;23.20;99.90
10905;DHT22;5505;51.450;9.254;2023-05-21T12:28:05;23.20;99.90
10905;DHT22;5505;51.450;9.254;2023-05-21T12:30:53;23.30;99.90
10905;DHT22;5505;51.450;9.254;2023-05-21T12:33:42;23.50;99.90
10905;DHT22;5505;51.450;9.254;2023-05-21T12:36:30;23.70;99.90
10905;DHT22;5505;51.450;9.254;2023-05-21T12:39:18;23.80;99.90
10905;DHT22;5505;51.450;9.254;2023-05-21T12:42:05;23.90;99.90
10905;DHT22;5505;51.450;9.254;2023-05-21T12:44:53;24.00;99.90
10905;DHT22;5505;51.450;9.254;2023-05-21T12:47:47;23.80;99.90
10905;DHT22;5505;51.450;9.254;2023-05-21T12:50:38;23.70;99.90
10905;DHT22;5505;51.450;9.254;2023-05-21T12:53:35;23.60;99.90
10905;DHT22;5505;51.450;9.254;2023-05-21T12:56:22;23.60;99.90
10905;DHT22;5505;51.450;9.254;2023-05-21T12:59:12;23.60;99.90
10905;DHT22;5505;51.450;9.254;2023-05-21T13:01:59;23.50;99.90
10905;DHT22;5505;51.450;9.254;2023-05-21T13:04:48;23.40;99.90
10905;DHT22;5505;51.450;9.254;2023-05-21T13:07:39;23.40;99.90
10905;DHT22;5505;51.450;9.254;2023-05-21T13:10:28;23.40;99.90
10905;DHT22;5505;51.450;9.254;2023-05-21T13:13:15;23.40;99.90
10905;DHT22;5505;51.450;9.254;2023-05-21T13:16:01;23.50;99.90
10905;DHT22;5505;51.450;9.254;2023-05-21T13:18:48;23.50;99.90
10905;DHT22;5505;51.450;9.254;2023-05-21T13:21:36;23.80;99.90
10905;DHT22;5505;51.450;9.254;2023-05-21T13:24:23;23.90;99.90
10905;DHT22;5505;51.450;9.254;2023-05-21T13:27:09;22.50;99.90
10905;DHT22;5505;51.450;9.254;2023-05-21T13:29:57;23.90;99.90
10905;DHT22;5505;51.450;9.254;2023-05-21T13:32:44;23.20;99.90
10905;DHT22;5505;51.450;9.254;2023-05-21T13:35:31;23.70;99.90
10905;DHT22;5505;51.450;9.254;2023-05-21T13:38:20;23.70;99.90
10905;DHT22;5505;51.450;9.254;2023-05-21T13:41:06;23.80;99.90
10905;DHT22;5505;51.450;9.254;2023-05-21T13:43:51;23.80;99.90
10905;DHT22;5505;51.450;9.254;2023-05-21T13:46:38;23.80;99.90
10905;DHT22;5505;51.450;9.254;2023-05-21T13:49:25;24.00;99.90
10905;DHT22;5505;51.450;9.254;2023-05-21T13:52:12;24.00;99.90
10905;DHT22;5505;51.450;9.254;2023-05-21T13:55:01;24.00;99.90
10905;DHT22;5505;51.450;9.254;2023-05-21T13:57:48;24.20;99.90
10905;DHT22;5505;51.450;9.254;2023-05-21T14:00:35;24.10;99.90
10905;DHT22;5505;51.450;9.254;2023-05-21T14:03:22;24.10;99.90
10905;DHT22;5505;51.450;9.254;2023-05-21T14:06:09;24.00;99.90
10905;DHT22;5505;51.450;9.254;2023-05-21T14:08:57;24.00;99.90
10905;DHT22;5505;51.450;9.254;2023-05-21T14:11:45;24.10;99.90
10905;DHT22;5505;51.450;9.254;2023-05-21T14:14:32;24.20;99.90
10905;DHT22;5505;51.450;9.254;2023-05-21T14:17:19;24.00;99.90
10905;DHT22;5505;51.450;9.254;2023-05-21T14:20:07;23.90;99.90
10905;DHT22;5505;51.450;9.254;2023-05-21T14:22:55;23.90;99.90
10905;DHT22;5505;51.450;9.254;2023-05-21T14:25:42;23.80;99.90
10905;DHT22;5505;51.450;9.254;2023-05-21T14:28:31;23.80;99.90
10905;DHT22;5505;51.450;9.254;2023-05-21T14:31:18;23.90;99.90
10905;DHT22;5505;51.450;9.254;2023-05-21T14:34:06;23.80;99.90
10905;DHT22;5505;51.450;9.254;2023-05-21T14:36:53;23.80;99.90
10905;DHT22;5505;51.450;9.254;2023-05-21T14:39:40;23.90;99.90
10905;DHT22;5505;51.450;9.254;2023-05-21T14:42:27;24.00;99.90
10905;DHT22;5505;51.450;9.254;2023-05-21T14:45:16;24.10;99.90
10905;DHT22;5505;51.450;9.254;2023-05-21T14:48:03;24.20;99.90
10905;DHT22;5505;51.450;9.254;2023-05-21T14:50:53;24.10;99.90
10905;DHT22;5505;51.450;9.254;2023-05-21T14:53:40;24.00;99.90
10905;DHT22;5505;51.450;9.254;2023-05-21T14:56:27;24.00;99.90
10905;DHT22;5505;51.450;9.254;2023-05-21T14:59:15;24.10;99.90
10905;DHT22;5505;51.450;9.254;2023-05-21T15:02:04;24.10;99.90
10905;DHT22;5505;51.450;9.254;2023-05-21T15:04:51;25.40;99.90
10905;DHT22;5505;51.450;9.254;2023-05-21T15:07:38;24.00;99.90
10905;DHT22;5505;51.450;9.254;2023-05-21T15:10:26;24.00;99.90
10905;DHT22;5505;51.450;9.254;2023-05-21T15:13:13;24.00;99.90
10905;DHT22;5505;51.450;9.254;2023-05-21T15:16:00;24.20;99.90
10905;DHT22;5505;51.450;9.254;2023-05-21T15:18:49;24.20;99.90
10905;DHT22;5505;51.450;9.254;2023-05-21T15:21:36;24.20;99.90
10905;DHT22;5505;51.450;9.254;2023-05-21T15:24:23;24.30;99.90
10905;DHT22;5505;51.450;9.254;2023-05-21T15:27:10;24.30;99.90
10905;DHT22;5505;51.450;9.254;2023-05-21T15:29:58;24.30;99.90
10905;DHT22;5505;51.450;9.254;2023-05-21T15:32:45;24.20;99.90
10905;DHT22;5505;51.450;9.254;2023-05-21T15:35:34;24.30;99.90
10905;DHT22;5505;51.450;9.254;2023-05-21T15:38:22;24.20;99.90
10905;DHT22;5505;51.450;9.254;2023-05-21T15:41:09;24.00;99.90
10905;DHT22;5505;51.450;9.254;2023-05-21T15:43:56;23.80;99.90
10905;DHT22;5505;51.450;9.254;2023-05-21T15:46:43;23.60;99.90
10905;DHT22;5505;51.450;9.254;2023-05-21T15:49:30;23.50;99.90
10905;DHT22;5505;51.450;9.254;2023-05-21T15:52:18;23.70;99.90
10905;DHT22;5505;51.450;9.254;2023-05-21T15:55:06;23.60;99.90
10905;DHT22;5505;51.450;9.254;2023-05-21T15:57:53;23.60;99.90
10905;DHT22;5505;51.450;9.254;2023-05-21T16:00:40;23.70;99.90
10905;DHT22;5505;51.450;9.254;2023-05-21T16:03:28;23.80;99.90
10905;DHT22;5505;51.450;9.254;2023-05-21T16:06:15;24.50;99.90
10905;DHT22;5505;51.450;9.254;2023-05-21T16:09:04;23.70;99.90
10905;DHT22;5505;51.450;9.254;2023-05-21T16:11:51;23.70;99.90
10905;DHT22;5505;51.450;9.254;2023-05-21T16:14:38;23.60;99.90
10905;DHT22;5505;51.450;9.254;2023-05-21T16:17:25;23.50;99.90
10905;DHT22;5505;51.450;9.254;2023-05-21T16:20:12;23.40;99.90
10905;DHT22;5505;51.450;9.254;2023-05-21T16:23:00;23.40;99.90
10905;DHT22;5505;51.450;9.254;2023-05-21T16:25:50;23.40;99.90
10905;DHT22;5505;51.450;9.254;2023-05-21T16:28:37;23.40;99.90
10905;DHT22;5505;51.450;9.254;2023-05-21T16:31:24;23.30;99.90
10905;DHT22;5505;51.450;9.254;2023-05-21T16:34:11;23.20;99.90
10905;DHT22;5505;51.450;9.254;2023-05-21T16:36:58;22.20;99.90
10905;DHT22;5505;51.450;9.254;2023-05-21T16:39:45;23.10;99.90
10905;DHT22;5505;51.450;9.254;2023-05-21T16:42:34;23.20;99.90
10905;DHT22;5505;51.450;9.254;2023-05-21T16:45:21;23.20;99.90
10905;DHT22;5505;51.450;9.254;2023-05-21T16:48:08;23.20;99.90
10905;DHT22;5505;51.450;9.254;2023-05-21T16:50:56;23.10;99.90
10905;DHT22;5505;51.450;9.254;2023-05-21T16:53:43;23.10;99.90
10905;DHT22;5505;51.450;9.254;2023-05-21T16:56:30;23.00;99.90
10905;DHT22;5505;51.450;9.254;2023-05-21T16:59:19;23.00;99.90
10905;DHT22;5505;51.450;9.254;2023-05-21T17:02:07;23.00;99.90
10905;DHT22;5505;51.450;9.254;2023-05-21T17:04:54;22.90;99.90
10905;DHT22;5505;51.450;9.254;2023-05-21T17:07:41;23.00;99.90
10905;DHT22;5505;51.450;9.254;2023-05-21T17:10:29;22.70;99.90
10905;DHT22;5505;51.450;9.254;2023-05-21T17:13:18;22.70;99.90
10905;DHT22;5505;51.450;9.254;2023-05-21T17:16:07;22.60;99.90
10905;DHT22;5505;51.450;9.254;2023-05-21T17:18:54;22.50;99.90
10905;DHT22;5505;51.450;9.254;2023-05-21T17:21:41;22.50;99.90
10905;DHT22;5505;51.450;9.254;2023-05-21T17:24:28;22.40;99.90
10905;DHT22;5505;51.450;9.254;2023-05-21T17:27:15;22.30;99.90
10905;DHT22;5505;51.450;9.254;2023-05-21T17:30:03;22.30;99.90
10905;DHT22;5505;51.450;9.254;2023-05-21T17:32:51;22.20;99.90
10905;DHT22;5505;51.450;9.254;2023-05-21T17:35:39;22.20;99.90
10905;DHT22;5505;51.450;9.254;2023-05-21T17:38:26;22.20;99.90
10905;DHT22;5505;51.450;9.254;2023-05-21T17:41:13;22.10;99.90
10905;DHT22;5505;51.450;9.254;2023-05-21T17:44:03;22.10;99.90
10905;DHT22;5505;51.450;9.254;2023-05-21T17:46:51;22.10;99.90
10905;DHT22;5505;51.450;9.254;2023-05-21T17:49:39;22.00;99.90
10905;DHT22;5505;51.450;9.254;2023-05-21T17:52:26;21.90;99.90
10905;DHT22;5505;51.450;9.254;2023-05-21T17:55:13;21.80;99.90
10905;DHT22;5505;51.450;9.254;2023-05-21T17:58:00;21.80;99.90
10905;DHT22;5505;51.450;9.254;2023-05-21T18:00:48;21.70;99.90
10905;DHT22;5505;51.450;9.254;2023-05-21T18:03:36;21.70;99.90
10905;DHT22;5505;51.450;9.254;2023-05-21T18:06:24;21.60;99.90
10905;DHT22;5505;51.450;9.254;2023-05-21T18:09:12;21.60;99.90